sensor_id;sensor_type;location;lat;lon;timestamp;pressure;altitude;pressure_sealevel;temperature;humidity
57894;BME280;43710;47.460;19.034;2023-08-17T04:07:43;100740.59;;;22.08;100.00
57894;BME280;43710;47.460;19.034;2023-08-17T04:10:46;100740.59;;;22.08;100.00
57894;BME280;43710;47.460;19.034;2023-08-17T04:13:48;100749.94;;;21.50;100.00
57894;BME280;43710;47.460;19.034;2023-08-17T04:16:53;100753.44;;;21.51;100.00
57894;BME280;43710;47.460;19.034;2023-08-17T04:19:55;100752.53;;;21.59;100.00
57894;BME280;43710;47.460;19.034;2023-08-17T04:22:58;100756.34;;;21.70;100.00
57894;BME280;43710;47.460;19.034;2023-08-17T04:26:00;100747.88;;;21.60;100.00
57894;BME280;43710;47.460;19.034;2023-08-17T04:29:03;100754.31;;;21.67;100.00
57894;BME280;43710;47.460;19.034;2023-08-17T04:32:06;100753.72;;;21.74;100.00
57894;BME280;43710;47.460;19.034;2023-08-17T04:35:09;100751.56;;;21.79;100.00
57894;BME280;43710;47.460;19.034;2023-08-17T04:38:12;100751.34;;;21.72;100.00
57894;BME280;43710;47.460;19.034;2023-08-17T04:41:14;100759.19;;;21.74;100.00
57894;BME280;43710;47.460;19.034;2023-08-17T04:44:17;100760.06;;;21.78;100.00
57894;BME280;43710;47.460;19.034;2023-08-17T04:47:20;100762.47;;;21.79;100.00
57894;BME280;43710;47.460;19.034;2023-08-17T04:50:22;100760.16;;;21.81;100.00
57894;BME280;43710;47.460;19.034;2023-08-17T04:53:25;100764.59;;;21.86;100.00
57894;BME280;43710;47.460;19.034;2023-08-17T04:56:27;100765.84;;;21.89;100.00
57894;BME280;43710;47.460;19.034;2023-08-17T04:59:30;100768.22;;;21.90;100.00
57894;BME280;43710;47.460;19.034;2023-08-17T05:02:32;100764.34;;;21.91;100.00
57894;BME280;43710;47.460;19.034;2023-08-17T05:05:35;100758.38;;;22.01;100.00
57894;BME280;43710;47.460;19.034;2023-08-17T05:08:38;100756.19;;;22.07;100.00
57894;BME280;43710;47.460;19.034;2023-08-17T05:11:41;100764.84;;;22.09;100.00
57894;BME280;43710;47.460;19.034;2023-08-17T05:14:45;100761.41;;;22.12;100.00
57894;BME280;43710;47.460;19.034;2023-08-17T05:17:48;100757.19;;;22.15;100.00
57894;BME280;43710;47.460;19.034;2023-08-17T05:20:51;100757.06;;;22.23;100.00
57894;BME280;43710;47.460;19.034;2023-08-17T05:23:54;100761.66;;;22.35;100.00
57894;BME280;43710;47.460;19.034;2023-08-17T05:26:56;100770.13;;;22.46;100.00
57894;BME280;43710;47.460;19.034;2023-08-17T05:29:58;100766.78;;;22.52;100.00
57894;BME280;43710;47.460;19.034;2023-08-17T05:33:01;100768.53;;;22.61;100.00
57894;BME280;43710;47.460;19.034;2023-08-17T05:36:03;100764.16;;;22.56;100.00
57894;BME280;43710;47.460;19.034;2023-08-17T05:39:06;100757.19;;;22.59;100.00
57894;BME280;43710;47.460;19.034;2023-08-17T05:42:08;100753.03;;;22.65;100.00
57894;BME280;43710;47.460;19.034;2023-08-17T05:45:11;100753.94;;;22.69;100.00
57894;BME280;43710;47.460;19.034;2023-08-17T05:48:14;100757.69;;;22.80;100.00
57894;BME280;43710;47.460;19.034;2023-08-17T05:51:16;100761.63;;;22.95;100.00
57894;BME280;43710;47.460;19.034;2023-08-17T05:54:19;100755.53;;;23.02;100.00
57894;BME280;43710;47.460;19.034;2023-08-17T05:57:21;100759.09;;;23.21;100.00
57894;BME280;43710;47.460;19.034;2023-08-17T06:00:24;100761.63;;;23.30;100.00
57894;BME280;43710;47.460;19.034;2023-08-17T06:03:27;100759.75;;;23.34;100.00
57894;BME280;43710;47.460;19.034;2023-08-17T06:06:29;100750.25;;;23.48;100.00
57894;BME280;43710;47.460;19.034;2023-08-17T06:09:32;100757.94;;;23.58;100.00
57894;BME280;43710;47.460;19.034;2023-08-17T06:12:34;100743.72;;;23.68;97.92
57894;BME280;43710;47.460;19.034;2023-08-17T06:15:37;100747.22;;;23.68;95.01
57894;BME280;43710;47.460;19.034;2023-08-17T06:18:39;100752.16;;;23.63;98.11
57894;BME280;43710;47.460;19.034;2023-08-17T06:21:41;100752.59;;;23.65;92.69
57894;BME280;43710;47.460;19.034;2023-08-17T06:24:43;100749.72;;;23.58;93.28
57894;BME280;43710;47.460;19.034;2023-08-17T06:27:49;100748.63;;;23.43;93.66
57894;BME280;43710;47.460;19.034;2023-08-17T06:30:52;100756.31;;;23.37;96.26
57894;BME280;43710;47.460;19.034;2023-08-17T06:33:55;100744.88;;;23.32;98.18
57894;BME280;43710;47.460;19.034;2023-08-17T06:36:59;100742.06;;;23.28;100.00
57894;BME280;43710;47.460;19.034;2023-08-17T06:40:03;100736.72;;;23.35;100.00
57894;BME280;43710;47.460;19.034;2023-08-17T06:43:07;100738.25;;;23.52;94.17
57894;BME280;43710;47.460;19.034;2023-08-17T06:46:09;100729.84;;;23.61;88.58
57894;BME280;43710;47.460;19.034;2023-08-17T06:49:12;100731.94;;;23.67;92.42
57894;BME280;43710;47.460;19.034;2023-08-17T06:52:14;100723.78;;;23.52;96.00
57894;BME280;43710;47.460;19.034;2023-08-17T06:55:17;100726.94;;;23.54;96.37
57894;BME280;43710;47.460;19.034;2023-08-17T06:58:19;100733.78;;;23.44;95.42
57894;BME280;43710;47.460;19.034;2023-08-17T07:01:21;100737.31;;;23.44;96.56
57894;BME280;43710;47.460;19.034;2023-08-17T07:04:24;100740.22;;;23.52;92.57
57894;BME280;43710;47.460;19.034;2023-08-17T07:07:27;100748.13;;;23.57;93.04
57894;BME280;43710;47.460;19.034;2023-08-17T07:10:29;100749.00;;;23.61;85.20
57894;BME280;43710;47.460;19.034;2023-08-17T07:13:32;100745.44;;;23.60;83.62
57894;BME280;43710;47.460;19.034;2023-08-17T07:16:34;100749.72;;;23.58;87.61
57894;BME280;43710;47.460;19.034;2023-08-17T07:19:36;100749.34;;;23.59;90.49
57894;BME280;43710;47.460;19.034;2023-08-17T07:22:59;100744.81;;;23.67;85.82
57894;BME280;43710;47.460;19.034;2023-08-17T07:26:01;100753.31;;;23.62;85.08
57894;BME280;43710;47.460;19.034;2023-08-17T07:29:03;100750.13;;;23.60;87.45
57894;BME280;43710;47.460;19.034;2023-08-17T07:32:05;100751.56;;;23.54;91.91
57894;BME280;43710;47.460;19.034;2023-08-17T07:35:08;100757.50;;;23.56;97.65
57894;BME280;43710;47.460;19.034;2023-08-17T07:38:10;100758.34;;;23.60;90.90
57894;BME280;43710;47.460;19.034;2023-08-17T07:41:13;100750.50;;;23.58;98.89
57894;BME280;43710;47.460;19.034;2023-08-17T07:44:15;100757.12;;;23.57;88.61
57894;BME280;43710;47.460;19.034;2023-08-17T07:47:17;100753.50;;;23.69;85.40
57894;BME280;43710;47.460;19.034;2023-08-17T07:50:20;100755.22;;;23.77;85.98
57894;BME280;43710;47.460;19.034;2023-08-17T07:53:23;100751.41;;;23.82;83.04
57894;BME280;43710;47.460;19.034;2023-08-17T07:56:26;100746.28;;;23.80;88.08
57894;BME280;43710;47.460;19.034;2023-08-17T07:59:29;100758.03;;;23.81;86.21
57894;BME280;43710;47.460;19.034;2023-08-17T08:02:31;100754.16;;;23.82;88.90
57894;BME280;43710;47.460;19.034;2023-08-17T08:05:33;100747.88;;;23.81;85.62
57894;BME280;43710;47.460;19.034;2023-08-17T08:08:36;100749.53;;;23.86;94.86
57894;BME280;43710;47.460;19.034;2023-08-17T08:11:38;100746.06;;;23.89;87.01
57894;BME280;43710;47.460;19.034;2023-08-17T08:14:40;100746.19;;;23.96;84.18
57894;BME280;43710;47.460;19.034;2023-08-17T08:17:43;100752.69;;;24.07;86.16
57894;BME280;43710;47.460;19.034;2023-08-17T08:20:45;100744.19;;;24.35;79.44
57894;BME280;43710;47.460;19.034;2023-08-17T08:23:48;100742.81;;;24.45;83.50
57894;BME280;43710;47.460;19.034;2023-08-17T08:26:50;100730.91;;;24.37;77.41
57894;BME280;43710;47.460;19.034;2023-08-17T08:29:53;100731.84;;;24.45;80.62
57894;BME280;43710;47.460;19.034;2023-08-17T08:32:55;100733.91;;;24.52;80.39
57894;BME280;43710;47.460;19.034;2023-08-17T08:36:00;100743.84;;;24.60;81.42
57894;BME280;43710;47.460;19.034;2023-08-17T08:39:02;100745.06;;;24.63;78.48
57894;BME280;43710;47.460;19.034;2023-08-17T08:42:05;100746.56;;;24.60;78.21
57894;BME280;43710;47.460;19.034;2023-08-17T08:45:07;100747.00;;;24.62;81.65
57894;BME280;43710;47.460;19.034;2023-08-17T08:48:13;100746.56;;;24.60;77.21
57894;BME280;43710;47.460;19.034;2023-08-17T08:51:16;100747.78;;;24.63;78.19
57894;BME280;43710;47.460;19.034;2023-08-17T08:54:21;100741.84;;;24.57;81.63
57894;BME280;43710;47.460;19.034;2023-08-17T08:57:27;100746.06;;;24.51;81.79
57894;BME280;43710;47.460;19.034;2023-08-17T09:00:30;100746.00;;;24.47;83.89
57894;BME280;43710;47.460;19.034;2023-08-17T09:03:34;100741.50;;;24.39;85.37
57894;BME280;43710;47.460;19.034;2023-08-17T09:06:40;100749.53;;;24.28;80.21
57894;BME280;43710;47.460;19.034;2023-08-17T09:09:44;100741.72;;;24.30;89.01
57894;BME280;43710;47.460;19.034;2023-08-17T09:12:47;100739.00;;;24.30;86.14
57894;BME280;43710;47.460;19.034;2023-08-17T09:15:52;100737.12;;;24.34;88.39
57894;BME280;43710;47.460;19.034;2023-08-17T09:18:55;100742.09;;;24.48;83.97
57894;BME280;43710;47.460;19.034;2023-08-17T09:21:58;100740.62;;;24.54;82.66
57894;BME280;43710;47.460;19.034;2023-08-17T09:25:01;100731.97;;;24.52;81.16
57894;BME280;43710;47.460;19.034;2023-08-17T09:28:07;100731.19;;;24.52;79.73
57894;BME280;43710;47.460;19.034;2023-08-17T09:31:14;100725.41;;;24.57;87.29
57894;BME280;43710;47.460;19.034;2023-08-17T09:34:18;100729.03;;;24.65;85.36
57894;BME280;43710;47.460;19.034;2023-08-17T09:37:21;100724.66;;;24.60;78.74
57894;BME280;43710;47.460;19.034;2023-08-17T09:40:26;100720.44;;;24.66;85.20
57894;BME280;43710;47.460;19.034;2023-08-17T09:43:28;100716.62;;;24.71;82.71
57894;BME280;43710;47.460;19.034;2023-08-17T09:46:33;100711.59;;;24.76;78.72
57894;BME280;43710;47.460;19.034;2023-08-17T09:49:36;100710.12;;;24.82;79.14
57894;BME280;43710;47.460;19.034;2023-08-17T09:52:38;100707.06;;;24.88;78.32
57894;BME280;43710;47.460;19.034;2023-08-17T09:55:41;100707.53;;;24.93;79.16
57894;BME280;43710;47.460;19.034;2023-08-17T09:58:44;100706.00;;;24.96;75.71
57894;BME280;43710;47.460;19.034;2023-08-17T10:01:49;100707.75;;;25.07;77.95
57894;BME280;43710;47.460;19.034;2023-08-17T10:04:57;100705.13;;;25.15;77.55
57894;BME280;43710;47.460;19.034;2023-08-17T10:08:00;100704.03;;;25.23;75.00
57894;BME280;43710;47.460;19.034;2023-08-17T10:11:06;100700.22;;;25.27;73.80
57894;BME280;43710;47.460;19.034;2023-08-17T10:14:13;100702.94;;;25.27;73.64
57894;BME280;43710;47.460;19.034;2023-08-17T10:17:25;100711.28;;;25.35;75.10
57894;BME280;43710;47.460;19.034;2023-08-17T10:20:30;100702.81;;;25.47;72.83
57894;BME280;43710;47.460;19.034;2023-08-17T10:23:33;100703.59;;;25.47;72.51
57894;BME280;43710;47.460;19.034;2023-08-17T10:26:36;100698.81;;;25.41;73.60
57894;BME280;43710;47.460;19.034;2023-08-17T10:29:40;100693.00;;;25.49;73.05
57894;BME280;43710;47.460;19.034;2023-08-17T10:32:43;100696.22;;;25.55;74.23
57894;BME280;43710;47.460;19.034;2023-08-17T10:35:49;100695.16;;;25.63;70.23
57894;BME280;43710;47.460;19.034;2023-08-17T10:39:21;100698.31;;;25.65;71.95
57894;BME280;43710;47.460;19.034;2023-08-17T10:42:33;100690.19;;;25.76;71.86
57894;BME280;43710;47.460;19.034;2023-08-17T10:45:37;100692.16;;;25.79;71.56
57894;BME280;43710;47.460;19.034;2023-08-17T10:48:45;100688.41;;;25.91;69.20
57894;BME280;43710;47.460;19.034;2023-08-17T10:52:03;100697.78;;;25.86;68.97
57894;BME280;43710;47.460;19.034;2023-08-17T10:55:07;100686.03;;;25.89;70.09
57894;BME280;43710;47.460;19.034;2023-08-17T10:58:11;100698.63;;;25.90;70.32
57894;BME280;43710;47.460;19.034;2023-08-17T11:01:36;100693.84;;;25.84;70.63
57894;BME280;43710;47.460;19.034;2023-08-17T11:04:40;100696.94;;;25.82;69.89
57894;BME280;43710;47.460;19.034;2023-08-17T11:07:52;100692.13;;;25.75;69.25
57894;BME280;43710;47.460;19.034;2023-08-17T11:11:11;100694.59;;;25.81;69.95
57894;BME280;43710;47.460;19.034;2023-08-17T11:14:14;100686.50;;;25.95;70.63
57894;BME280;43710;47.460;19.034;2023-08-17T11:17:20;100686.56;;;26.02;69.13
57894;BME280;43710;47.460;19.034;2023-08-17T11:20:23;100685.28;;;25.92;69.70
57894;BME280;43710;47.460;19.034;2023-08-17T11:23:28;100682.62;;;25.99;69.97
57894;BME280;43710;47.460;19.034;2023-08-17T11:26:31;100687.31;;;25.99;68.74
57894;BME280;43710;47.460;19.034;2023-08-17T11:29:36;100678.28;;;25.98;69.93
57894;BME280;43710;47.460;19.034;2023-08-17T11:32:45;100676.34;;;26.02;71.11
57894;BME280;43710;47.460;19.034;2023-08-17T11:35:47;100686.56;;;26.02;70.92
57894;BME280;43710;47.460;19.034;2023-08-17T11:38:52;100684.69;;;26.10;68.23
57894;BME280;43710;47.460;19.034;2023-08-17T11:41:54;100683.50;;;26.11;68.56
57894;BME280;43710;47.460;19.034;2023-08-17T11:44:59;100680.47;;;26.19;68.12
57894;BME280;43710;47.460;19.034;2023-08-17T11:48:01;100678.91;;;26.25;68.33
57894;BME280;43710;47.460;19.034;2023-08-17T11:51:06;100688.72;;;26.23;67.96
57894;BME280;43710;47.460;19.034;2023-08-17T11:54:08;100672.97;;;26.16;67.62
57894;BME280;43710;47.460;19.034;2023-08-17T11:57:11;100684.72;;;26.13;68.01
57894;BME280;43710;47.460;19.034;2023-08-17T12:00:20;100671.75;;;26.14;69.15
57894;BME280;43710;47.460;19.034;2023-08-17T12:03:23;100671.34;;;26.12;67.32
57894;BME280;43710;47.460;19.034;2023-08-17T12:06:27;100669.78;;;26.14;68.87
57894;BME280;43710;47.460;19.034;2023-08-17T12:09:32;100670.59;;;26.15;69.72
57894;BME280;43710;47.460;19.034;2023-08-17T12:12:37;100667.47;;;26.16;68.33
57894;BME280;43710;47.460;19.034;2023-08-17T12:15:40;100667.50;;;26.20;68.45
57894;BME280;43710;47.460;19.034;2023-08-17T12:18:50;100663.97;;;26.19;67.18
57894;BME280;43710;47.460;19.034;2023-08-17T12:21:53;100657.28;;;26.20;65.50
57894;BME280;43710;47.460;19.034;2023-08-17T12:24:56;100655.38;;;26.28;67.68
57894;BME280;43710;47.460;19.034;2023-08-17T12:27:59;100648.75;;;26.33;67.04
57894;BME280;43710;47.460;19.034;2023-08-17T12:31:03;100644.47;;;26.39;66.04
57894;BME280;43710;47.460;19.034;2023-08-17T12:34:05;100653.22;;;26.52;63.74
57894;BME280;43710;47.460;19.034;2023-08-17T12:37:12;100644.97;;;26.52;65.08
57894;BME280;43710;47.460;19.034;2023-08-17T12:40:14;100643.47;;;26.58;61.99
57894;BME280;43710;47.460;19.034;2023-08-17T12:43:17;100635.56;;;26.49;66.56
57894;BME280;43710;47.460;19.034;2023-08-17T12:46:19;100631.16;;;26.44;67.55
57894;BME280;43710;47.460;19.034;2023-08-17T12:49:23;100631.56;;;26.43;66.48
57894;BME280;43710;47.460;19.034;2023-08-17T12:52:27;100622.53;;;26.42;67.46
57894;BME280;43710;47.460;19.034;2023-08-17T12:55:30;100616.31;;;26.49;64.65
57894;BME280;43710;47.460;19.034;2023-08-17T12:58:32;100610.44;;;26.51;64.42
57894;BME280;43710;47.460;19.034;2023-08-17T13:01:35;100609.66;;;26.54;64.42
57894;BME280;43710;47.460;19.034;2023-08-17T13:04:37;100608.97;;;26.71;63.43
57894;BME280;43710;47.460;19.034;2023-08-17T13:07:39;100610.19;;;26.77;62.61
57894;BME280;43710;47.460;19.034;2023-08-17T13:10:42;100596.84;;;26.76;66.69
57894;BME280;43710;47.460;19.034;2023-08-17T13:13:44;100599.16;;;26.70;64.86
57894;BME280;43710;47.460;19.034;2023-08-17T13:16:47;100596.00;;;26.68;63.22
57894;BME280;43710;47.460;19.034;2023-08-17T13:19:49;100594.88;;;26.80;62.44
57894;BME280;43710;47.460;19.034;2023-08-17T13:22:51;100587.44;;;26.84;62.50
57894;BME280;43710;47.460;19.034;2023-08-17T13:25:53;100587.00;;;26.78;64.11
57894;BME280;43710;47.460;19.034;2023-08-17T13:28:56;100594.44;;;26.70;63.87
57894;BME280;43710;47.460;19.034;2023-08-17T13:31:58;100591.62;;;26.60;65.19
57894;BME280;43710;47.460;19.034;2023-08-17T13:35:01;100583.44;;;26.67;66.04
57894;BME280;43710;47.460;19.034;2023-08-17T13:38:04;100579.87;;;26.63;64.53
57894;BME280;43710;47.460;19.034;2023-08-17T13:41:06;100581.84;;;26.66;65.59
57894;BME280;43710;47.460;19.034;2023-08-17T13:44:09;100586.63;;;26.76;64.92
57894;BME280;43710;47.460;19.034;2023-08-17T13:47:12;100587.00;;;26.75;63.96
57894;BME280;43710;47.460;19.034;2023-08-17T13:50:14;100586.22;;;26.78;64.12
57894;BME280;43710;47.460;19.034;2023-08-17T13:53:17;100567.72;;;26.67;64.64
57894;BME280;43710;47.460;19.034;2023-08-17T13:56:19;100568.09;;;26.66;66.61
57894;BME280;43710;47.460;19.034;2023-08-17T13:59:21;100575.53;;;26.62;67.90
57894;BME280;43710;47.460;19.034;2023-08-17T14:02:24;100569.66;;;26.60;68.64
57894;BME280;43710;47.460;19.034;2023-08-17T14:05:29;100577.50;;;26.61;65.60
57894;BME280;43710;47.460;19.034;2023-08-17T14:08:31;100571.97;;;26.54;64.93
57894;BME280;43710;47.460;19.034;2023-08-17T14:11:34;100582.16;;;26.50;68.54
57894;BME280;43710;47.460;19.034;2023-08-17T14:14:36;100580.94;;;26.47;67.58
57894;BME280;43710;47.460;19.034;2023-08-17T14:17:38;100579.00;;;26.48;68.32
57894;BME280;43710;47.460;19.034;2023-08-17T14:20:41;100582.09;;;26.46;67.41
57894;BME280;43710;47.460;19.034;2023-08-17T14:23:43;100584.47;;;26.48;67.20
